首页
METAR-TAF:

METAR-TAF

机场 :

波隆納機場

博洛尼亚, 意大利

纬度: 44-32N, 经度: 011-18E, 海拔: 36米

当前天气观测

该预报发布于39分钟前的16:50 UTC
风速8节,风向
温度 33°C
湿度 39%
气压 1005 hPa
能见度10公里或以上
1500米以下无云,无积雨云

METAR: LIPE 061650Z 10008KT CAVOK 33/17 Q1005

时间: 19:29 (17:29 UTC)

预报

该预报发布于6小时和29分钟前的11:00 UTC
预报有效从06日的 12点(UTC)到 07日的 12点(UTC)
风速10节,风向
能见度10公里或以上
1500米以下无云,无积雨云
成为
从 06日的 16点(UTC)到 06日的 18点(UTC)
风速6节,风向多变
成为
从 07日的 00点(UTC)到 07日的 02点(UTC)
风速16节,风向

TAF: LIPE 061100Z 0612/0712 09010KT CAVOK BECMG 0616/0618 VRB06KT BECMG 0700/0702 08016KT

超过4000个机场的气象观测和天气预报(METAR&TAF报告)。

可查询的气象台以黄色和红色小点在地图上表示。

将鼠标移到小点上方,可查看气象台名称。

然后点击查看天气观测和预报。

如需切换地图:点击带黑十字的绿色按钮放大地图;点击带横线的绿色按钮缩小地图;或者点击绿色箭头查看邻近地区的地图。


METAR-TAF: